createdAt,value
2022-07-31T00:01:03.144Z,3.47
2022-07-31T00:05:23.712Z,3.10
2022-07-31T00:07:27.367Z,3.73
2022-07-31T00:09:53.301Z,3.00
2022-07-31T00:11:36.377Z,3.33
2022-07-31T00:13:56.500Z,3.03
2022-07-31T00:15:45.252Z,3.17
2022-07-31T00:17:49.168Z,3.67
2022-07-31T00:19:52.785Z,3.50
2022-07-31T00:21:58.004Z,3.33
2022-07-31T00:24:01.610Z,3.80
2022-07-31T00:26:05.208Z,3.17
2022-07-31T00:28:08.760Z,3.20
2022-07-31T00:30:13.569Z,3.17
2022-07-31T00:32:17.183Z,3.30
2022-07-31T00:34:20.828Z,3.90
2022-07-31T00:36:30.044Z,3.30
2022-07-31T00:38:30.249Z,2.90
2022-07-31T00:40:34.017Z,3.60
2022-07-31T00:42:37.626Z,3.40
2022-07-31T00:44:41.210Z,3.00
2022-07-31T00:46:44.792Z,3.53
2022-07-31T00:48:48.454Z,3.97
2022-07-31T00:50:52.427Z,3.73
2022-07-31T00:52:55.904Z,3.67
2022-07-31T00:54:59.596Z,3.93
2022-07-31T00:57:04.320Z,3.80
2022-07-31T00:59:08.122Z,3.50
2022-07-31T01:01:11.905Z,5.33
2022-07-31T01:03:15.830Z,3.60
2022-07-31T01:05:19.410Z,3.50
2022-07-31T01:07:23.030Z,4.10
2022-07-31T01:09:26.816Z,3.80
2022-07-31T01:11:35.431Z,3.60
2022-07-31T01:13:45.080Z,3.50
2022-07-31T01:15:49.110Z,3.70
2022-07-31T01:17:54.812Z,3.37
2022-07-31T01:19:59.463Z,4.07
2022-07-31T01:22:32.960Z,4.10
2022-07-31T01:24:32.215Z,3.70
2022-07-31T01:26:48.281Z,3.53
2022-07-31T01:29:04.073Z,4.30
2022-07-31T01:31:26.086Z,3.67
2022-07-31T01:33:19.516Z,3.80
2022-07-31T01:35:27.154Z,3.43
2022-07-31T01:37:35.355Z,3.50
2022-07-31T01:39:41.116Z,3.70
2022-07-31T01:41:47.451Z,3.60
2022-07-31T01:43:55.229Z,3.97
2022-07-31T01:46:02.064Z,3.60
2022-07-31T01:48:07.872Z,3.70
2022-07-31T01:50:43.127Z,3.80
2022-07-31T01:52:20.427Z,3.70
2022-07-31T01:54:24.880Z,3.80
2022-07-31T01:56:31.306Z,4.27
2022-07-31T02:00:55.144Z,4.73
2022-07-31T02:03:01.559Z,5.30
2022-07-31T02:05:10.003Z,4.30
2022-07-31T02:07:16.023Z,4.87
2022-07-31T02:09:21.626Z,4.03
2022-07-31T02:11:25.245Z,4.23
2022-07-31T02:13:29.938Z,4.30
2022-07-31T02:15:34.349Z,4.23
2022-07-31T02:17:38.994Z,4.00
2022-07-31T02:19:55.427Z,4.50
2022-07-31T02:21:53.087Z,4.20
2022-07-31T02:23:56.911Z,4.63
2022-07-31T02:26:01.905Z,5.20
2022-07-31T02:28:09.188Z,4.67
2022-07-31T02:30:15.508Z,6.33
2022-07-31T02:32:19.727Z,4.27
2022-07-31T02:34:29.101Z,4.20
2022-07-31T02:36:34.569Z,4.23
2022-07-31T02:38:41.938Z,4.30
2022-07-31T02:40:58.924Z,4.20
2022-07-31T02:43:03.626Z,4.30
2022-07-31T02:45:10.987Z,4.40
2022-07-31T02:47:15.408Z,4.00
2022-07-31T02:49:19.380Z,4.13
2022-07-31T02:51:23.816Z,4.13
2022-07-31T02:53:28.562Z,4.03
2022-07-31T02:55:34.688Z,4.17
2022-07-31T02:57:38.651Z,4.50
2022-07-31T02:59:44.214Z,4.00
2022-07-31T03:01:47.896Z,4.17
2022-07-31T03:03:51.495Z,4.60
2022-07-31T03:05:55.261Z,4.67
2022-07-31T03:07:59.204Z,4.50
2022-07-31T03:10:03.018Z,3.97
2022-07-31T03:12:11.594Z,4.20
2022-07-31T03:14:16.825Z,4.63
2022-07-31T03:16:22.226Z,4.40
2022-07-31T03:18:26.981Z,4.50
2022-07-31T03:20:30.901Z,4.00
2022-07-31T03:22:35.580Z,4.60
2022-07-31T03:24:39.284Z,4.77
2022-07-31T03:26:43.400Z,4.37
2022-07-31T03:28:48.245Z,4.40
2022-07-31T03:30:56.148Z,4.67
2022-07-31T03:33:01.068Z,4.50
2022-07-31T03:35:06.516Z,5.40
2022-07-31T03:37:10.433Z,4.90
2022-07-31T03:39:15.585Z,4.07
2022-07-31T03:41:21.329Z,4.43
2022-07-31T03:43:25.501Z,4.17
2022-07-31T03:45:31.340Z,4.27
2022-07-31T03:47:35.169Z,4.27
2022-07-31T03:49:39.539Z,5.20
2022-07-31T03:51:43.339Z,4.13
2022-07-31T03:53:47.969Z,4.73
2022-07-31T03:55:54.743Z,5.57
2022-07-31T03:57:59.709Z,4.70
2022-07-31T04:00:04.683Z,5.17
2022-07-31T04:02:12.287Z,5.10
2022-07-31T04:04:19.379Z,4.97
2022-07-31T04:06:24.873Z,5.03
2022-07-31T04:08:28.561Z,5.03
2022-07-31T04:10:32.356Z,4.30
2022-07-31T04:12:36.053Z,4.67
2022-07-31T04:14:39.837Z,4.27
2022-07-31T04:16:44.043Z,3.80
2022-07-31T04:18:51.130Z,4.20
2022-07-31T04:20:53.299Z,4.13
2022-07-31T04:22:56.971Z,4.50
2022-07-31T04:25:03.667Z,4.73
2022-07-31T04:27:12.695Z,4.43
2022-07-31T04:29:16.655Z,4.60
2022-07-31T04:31:20.265Z,4.97
2022-07-31T04:33:23.807Z,4.30
2022-07-31T04:35:27.428Z,4.37
2022-07-31T04:37:32.036Z,5.67
2022-07-31T04:39:36.112Z,4.60
2022-07-31T04:41:39.829Z,5.13
2022-07-31T04:43:44.438Z,4.80
2022-07-31T04:45:48.011Z,4.30
2022-07-31T04:50:10.024Z,4.50
2022-07-31T04:52:14.130Z,4.83
2022-07-31T04:54:19.503Z,4.47
2022-07-31T04:56:41.558Z,4.40
2022-07-31T04:58:45.140Z,4.77
2022-07-31T05:00:48.808Z,4.30
2022-07-31T05:02:54.223Z,4.20
2022-07-31T05:04:58.599Z,4.10
2022-07-31T05:07:04.056Z,4.17
2022-07-31T05:09:15.003Z,4.33
2022-07-31T05:11:22.231Z,4.00
2022-07-31T05:13:26.004Z,4.40
2022-07-31T05:15:29.683Z,4.63
2022-07-31T05:17:33.700Z,4.73
2022-07-31T05:19:39.120Z,4.90
2022-07-31T05:21:53.456Z,5.13
2022-07-31T05:23:52.955Z,5.73
2022-07-31T05:25:58.395Z,4.70
2022-07-31T05:28:01.995Z,4.33
2022-07-31T05:30:07.858Z,4.33
2022-07-31T05:32:11.934Z,4.50
2022-07-31T05:34:15.829Z,5.17
2022-07-31T05:36:20.728Z,3.90
2022-07-31T05:38:24.814Z,6.00
2022-07-31T05:40:30.587Z,13.07
2022-07-31T05:42:36.440Z,8.27
2022-07-31T05:49:04.339Z,4.90
2022-07-31T05:51:10.687Z,5.80
2022-07-31T05:53:15.453Z,5.10
2022-07-31T05:55:21.236Z,5.50
2022-07-31T05:57:33.230Z,5.50
2022-07-31T05:59:32.314Z,5.53
2022-07-31T06:01:35.994Z,5.57
2022-07-31T06:03:51.845Z,5.20
2022-07-31T06:05:48.139Z,4.60
2022-07-31T06:07:52.114Z,4.93
2022-07-31T06:09:57.264Z,5.37
2022-07-31T06:12:01.005Z,4.90
2022-07-31T06:14:06.036Z,5.10
2022-07-31T06:16:15.174Z,5.57
2022-07-31T06:18:19.583Z,4.70
2022-07-31T06:20:23.182Z,5.37
2022-07-31T06:22:26.880Z,5.27
2022-07-31T06:24:32.001Z,5.63
2022-07-31T06:26:37.233Z,7.10
2022-07-31T06:28:48.802Z,5.53
2022-07-31T06:30:46.909Z,5.10
2022-07-31T06:32:50.817Z,5.03
2022-07-31T06:34:54.415Z,6.17
2022-07-31T06:36:58.037Z,5.57
2022-07-31T06:39:03.416Z,5.37
2022-07-31T06:41:08.858Z,5.70
2022-07-31T06:43:14.278Z,5.83
2022-07-31T06:45:35.680Z,5.17
2022-07-31T06:47:27.373Z,4.83
2022-07-31T06:49:32.853Z,6.30
2022-07-31T06:51:36.621Z,6.43
2022-07-31T06:53:40.359Z,5.70
2022-07-31T06:55:44.187Z,5.83
2022-07-31T06:57:48.603Z,5.03
2022-07-31T06:59:53.130Z,6.03
2022-07-31T07:01:56.750Z,5.40
2022-07-31T07:04:02.601Z,4.80
2022-07-31T07:06:06.660Z,6.17
2022-07-31T07:08:10.904Z,4.83
2022-07-31T07:10:14.514Z,4.50
2022-07-31T07:12:19.948Z,4.50
2022-07-31T07:14:25.553Z,5.03
2022-07-31T07:16:29.241Z,4.77
2022-07-31T07:18:32.976Z,4.40
2022-07-31T07:20:36.764Z,4.10
2022-07-31T07:22:40.326Z,5.17
2022-07-31T07:24:44.349Z,4.20
2022-07-31T07:26:49.952Z,4.07
2022-07-31T07:28:54.856Z,5.10
2022-07-31T07:30:58.432Z,4.57
2022-07-31T07:33:02.325Z,5.87
2022-07-31T07:35:08.708Z,5.30
2022-07-31T07:37:14.095Z,5.60
2022-07-31T07:39:17.808Z,5.30
2022-07-31T07:41:21.707Z,5.20
2022-07-31T07:43:26.069Z,5.70
2022-07-31T07:45:29.588Z,6.57
2022-07-31T07:47:53.822Z,7.10
2022-07-31T07:49:38.617Z,5.77
2022-07-31T07:51:58.744Z,4.97
2022-07-31T07:53:51.212Z,5.93
2022-07-31T07:55:56.590Z,4.20
2022-07-31T07:58:02.139Z,4.80
2022-07-31T08:00:10.682Z,4.60
2022-07-31T08:02:16.308Z,4.57
2022-07-31T08:06:37.106Z,5.63
2022-07-31T08:08:40.651Z,4.30
2022-07-31T08:10:46.139Z,4.70
2022-07-31T08:12:53.468Z,4.57
2022-07-31T08:14:59.029Z,4.20
2022-07-31T08:17:04.464Z,4.50
2022-07-31T08:19:08.167Z,4.83
2022-07-31T08:21:11.881Z,4.80
2022-07-31T08:23:18.216Z,4.77
2022-07-31T08:25:21.445Z,4.93
2022-07-31T08:27:39.567Z,4.77
2022-07-31T08:29:32.936Z,5.47
2022-07-31T08:33:57.211Z,4.70
2022-07-31T08:36:01.107Z,6.07
2022-07-31T08:38:05.057Z,5.53
2022-07-31T08:40:12.562Z,5.83
2022-07-31T08:42:16.876Z,4.90
2022-07-31T08:44:27.107Z,4.30
2022-07-31T08:46:26.834Z,4.77
2022-07-31T08:48:32.533Z,4.47
2022-07-31T08:50:38.151Z,5.33
2022-07-31T08:52:45.274Z,4.63
2022-07-31T08:54:52.560Z,5.70
2022-07-31T08:56:56.313Z,4.90
2022-07-31T08:58:59.943Z,5.67
2022-07-31T09:01:03.806Z,5.73
2022-07-31T09:03:07.484Z,4.87
2022-07-31T09:05:17.202Z,4.93
2022-07-31T09:07:22.437Z,5.40
2022-07-31T09:09:50.830Z,6.53
2022-07-31T09:11:35.203Z,5.40
2022-07-31T09:13:43.961Z,4.83
2022-07-31T09:15:52.068Z,7.37
2022-07-31T09:17:57.896Z,4.80
2022-07-31T09:20:03.353Z,5.00
2022-07-31T09:22:20.612Z,5.30
2022-07-31T09:24:31.809Z,5.57
2022-07-31T09:26:41.929Z,5.93
2022-07-31T09:28:52.038Z,4.80
2022-07-31T09:30:58.807Z,4.20
2022-07-31T09:33:18.600Z,5.10
2022-07-31T09:35:46.336Z,5.53
2022-07-31T09:37:53.241Z,5.77
2022-07-31T09:40:00.212Z,5.37
2022-07-31T09:42:16.748Z,6.10
2022-07-31T09:46:41.578Z,6.03
2022-07-31T09:48:51.381Z,6.13
2022-07-31T09:50:59.840Z,4.83
2022-07-31T09:53:06.093Z,7.60
2022-07-31T09:55:16.704Z,5.00
2022-07-31T09:59:38.486Z,4.77
2022-07-31T10:01:43.735Z,4.63
2022-07-31T10:03:49.883Z,4.50
2022-07-31T10:05:55.785Z,4.70
2022-07-31T10:08:01.911Z,4.50
2022-07-31T10:10:10.824Z,5.33
2022-07-31T10:12:19.607Z,5.10
2022-07-31T10:14:27.961Z,4.80
2022-07-31T10:16:35.244Z,3.73
2022-07-31T10:18:44.597Z,4.50
2022-07-31T10:20:53.867Z,5.97
2022-07-31T10:23:04.049Z,4.50
2022-07-31T10:25:13.878Z,4.27
2022-07-31T10:27:18.805Z,4.10
2022-07-31T10:29:24.742Z,4.80
2022-07-31T10:31:30.546Z,5.43
2022-07-31T10:33:44.044Z,4.87
2022-07-31T10:35:55.584Z,5.00
2022-07-31T10:37:59.674Z,5.57
2022-07-31T10:40:10.910Z,5.47
2022-07-31T10:42:23.153Z,4.90
2022-07-31T10:44:38.359Z,4.70
2022-07-31T10:46:44.190Z,5.67
2022-07-31T10:48:55.456Z,5.10
2022-07-31T10:51:09.242Z,5.70
2022-07-31T10:53:17.777Z,4.87
2022-07-31T10:55:26.754Z,5.27
2022-07-31T10:57:34.047Z,5.10
2022-07-31T10:59:44.225Z,5.70
2022-07-31T11:01:53.252Z,4.87
2022-07-31T11:03:57.392Z,6.03
2022-07-31T11:08:21.017Z,5.00
2022-07-31T11:10:26.404Z,5.33
2022-07-31T11:12:31.767Z,5.47
2022-07-31T11:14:38.940Z,5.07
2022-07-31T11:16:51.769Z,4.37
2022-07-31T11:19:01.306Z,4.13
2022-07-31T11:21:22.778Z,5.17
2022-07-31T11:23:14.715Z,4.60
2022-07-31T11:25:19.012Z,3.93
2022-07-31T11:27:30.985Z,4.80
2022-07-31T11:30:01.736Z,4.63
2022-07-31T11:31:42.017Z,4.47
2022-07-31T11:33:48.300Z,4.90
2022-07-31T11:35:51.952Z,6.20
2022-07-31T11:37:58.137Z,5.03
2022-07-31T11:42:15.388Z,4.20
2022-07-31T11:44:21.885Z,5.23
2022-07-31T11:46:28.305Z,4.30
2022-07-31T11:48:38.067Z,3.93
2022-07-31T11:50:41.442Z,4.50
2022-07-31T11:52:46.720Z,4.50
2022-07-31T11:54:50.620Z,4.43
2022-07-31T11:56:54.653Z,4.07
2022-07-31T11:58:58.815Z,5.23
2022-07-31T12:01:04.795Z,5.23
2022-07-31T12:03:09.426Z,4.50
2022-07-31T12:05:14.000Z,5.60
2022-07-31T12:07:17.809Z,5.17
2022-07-31T12:10:01.310Z,5.97
2022-07-31T12:11:27.645Z,5.50
2022-07-31T12:16:13.079Z,4.67
2022-07-31T12:18:16.700Z,4.87
2022-07-31T12:20:34.580Z,4.67
2022-07-31T12:22:26.378Z,4.50
2022-07-31T12:24:30.153Z,5.57
2022-07-31T12:26:34.161Z,7.07
2022-07-31T12:28:37.833Z,5.37
2022-07-31T12:30:42.991Z,4.50
2022-07-31T12:32:47.864Z,4.00
2022-07-31T12:35:01.802Z,5.77
2022-07-31T12:37:06.817Z,6.30
2022-07-31T12:39:12.691Z,6.87
2022-07-31T12:41:17.185Z,6.33
2022-07-31T12:43:24.453Z,5.37
2022-07-31T12:45:46.253Z,4.60
2022-07-31T12:47:52.708Z,5.30
2022-07-31T12:49:56.715Z,4.47
2022-07-31T12:52:00.262Z,4.30
2022-07-31T12:54:04.576Z,4.70
2022-07-31T12:56:12.405Z,5.53
2022-07-31T12:58:16.039Z,4.70
2022-07-31T13:00:21.980Z,4.53
2022-07-31T13:02:25.616Z,4.93
2022-07-31T13:04:29.334Z,4.50
2022-07-31T13:08:49.176Z,5.13
2022-07-31T13:10:53.100Z,5.13
2022-07-31T13:12:56.752Z,4.50
2022-07-31T13:15:01.402Z,5.00
2022-07-31T13:17:05.768Z,5.80
2022-07-31T13:19:09.833Z,6.17
2022-07-31T13:21:13.421Z,4.70
2022-07-31T13:23:17.128Z,4.87
2022-07-31T13:25:20.930Z,4.73
2022-07-31T13:27:24.569Z,5.77
2022-07-31T13:29:28.296Z,5.17
2022-07-31T13:31:32.663Z,5.10
2022-07-31T13:33:36.353Z,5.30
2022-07-31T13:35:41.676Z,5.87
2022-07-31T13:37:45.827Z,7.47
2022-07-31T13:39:49.368Z,6.53
2022-07-31T13:41:52.962Z,5.10
2022-07-31T13:43:59.760Z,5.17
2022-07-31T13:46:03.475Z,4.57
2022-07-31T13:48:09.567Z,5.47
2022-07-31T13:50:13.391Z,4.80
2022-07-31T13:52:17.009Z,5.13
2022-07-31T13:54:20.756Z,5.30
2022-07-31T13:56:39.347Z,5.90
2022-07-31T13:58:54.867Z,4.90
2022-07-31T14:01:04.222Z,5.60
2022-07-31T14:03:04.903Z,4.57
2022-07-31T14:05:10.020Z,5.90
2022-07-31T14:07:15.320Z,4.73
2022-07-31T14:11:36.538Z,5.47
2022-07-31T14:13:42.383Z,5.33
2022-07-31T14:15:45.858Z,4.77
2022-07-31T14:17:49.574Z,5.80
2022-07-31T14:19:53.181Z,4.97
2022-07-31T14:21:57.538Z,5.57
2022-07-31T14:24:01.213Z,4.57
2022-07-31T14:26:05.007Z,4.63
2022-07-31T14:28:09.890Z,5.33
2022-07-31T14:30:14.612Z,6.73
2022-07-31T14:32:21.518Z,4.67
2022-07-31T14:34:31.035Z,5.70
2022-07-31T14:36:30.700Z,5.37
2022-07-31T14:38:34.213Z,4.93
2022-07-31T14:40:37.898Z,6.60
2022-07-31T14:42:42.187Z,5.23
2022-07-31T14:44:45.744Z,5.17
2022-07-31T14:46:49.563Z,5.00
2022-07-31T14:48:53.267Z,4.97
2022-07-31T14:50:57.372Z,4.73
2022-07-31T14:53:01.001Z,4.73
2022-07-31T14:55:06.071Z,4.87
2022-07-31T14:57:09.649Z,4.73
2022-07-31T14:59:13.248Z,6.73
2022-07-31T15:01:17.821Z,4.43
2022-07-31T15:03:21.487Z,5.43
2022-07-31T15:06:41.656Z,4.60
2022-07-31T15:07:36.014Z,5.20
2022-07-31T15:09:36.301Z,4.33
2022-07-31T15:11:59.276Z,5.10
2022-07-31T15:13:45.559Z,4.77
2022-07-31T15:15:49.187Z,5.27
2022-07-31T15:17:52.723Z,3.80
2022-07-31T15:19:56.321Z,4.47
2022-07-31T15:22:16.313Z,5.30
2022-07-31T15:24:06.305Z,5.17
2022-07-31T15:26:10.059Z,4.50
2022-07-31T15:30:29.714Z,6.00
2022-07-31T15:32:34.494Z,5.60
2022-07-31T15:34:38.263Z,4.50
2022-07-31T15:36:41.867Z,5.30
2022-07-31T15:38:45.876Z,4.40
2022-07-31T15:40:49.558Z,4.00
2022-07-31T15:42:53.448Z,7.00
2022-07-31T15:44:57.093Z,8.33
2022-07-31T15:47:00.732Z,6.30
2022-07-31T15:49:04.504Z,5.23
2022-07-31T15:51:10.281Z,6.07
2022-07-31T15:53:13.873Z,4.60
2022-07-31T15:57:35.838Z,4.70
2022-07-31T15:59:39.709Z,4.70
2022-07-31T16:01:43.405Z,4.77
2022-07-31T16:03:51.186Z,4.87
2022-07-31T16:05:56.139Z,5.30
2022-07-31T16:08:30.838Z,5.07
2022-07-31T16:10:15.415Z,5.00
2022-07-31T16:14:26.245Z,4.47
2022-07-31T16:16:29.897Z,5.00
2022-07-31T16:18:33.589Z,5.00
2022-07-31T16:20:37.300Z,5.20
2022-07-31T16:22:42.632Z,5.00
2022-07-31T16:24:46.214Z,4.50
2022-07-31T16:26:50.347Z,4.67
2022-07-31T16:28:54.386Z,4.93
2022-07-31T16:30:58.108Z,4.70
2022-07-31T16:33:01.827Z,4.93
2022-07-31T16:35:07.208Z,6.17
2022-07-31T16:37:10.839Z,5.23
2022-07-31T16:39:20.410Z,7.73
2022-07-31T16:41:22.398Z,6.33
2022-07-31T16:43:49.333Z,5.80
2022-07-31T16:45:32.007Z,6.70
2022-07-31T16:47:50.789Z,6.80
2022-07-31T16:49:41.213Z,5.80
2022-07-31T16:51:45.622Z,7.20
2022-07-31T16:54:14.387Z,7.53
2022-07-31T16:56:01.461Z,7.10
2022-07-31T16:58:00.265Z,6.23
2022-07-31T17:00:04.958Z,8.97
2022-07-31T17:02:08.632Z,6.23
2022-07-31T17:04:13.269Z,6.60
2022-07-31T17:06:16.927Z,6.57
2022-07-31T17:08:20.505Z,7.47
2022-07-31T17:10:24.911Z,6.33
2022-07-31T17:12:30.320Z,6.40
2022-07-31T17:14:33.931Z,6.13
2022-07-31T17:16:37.576Z,5.70
2022-07-31T17:18:41.231Z,6.80
2022-07-31T17:20:46.642Z,5.83
2022-07-31T17:22:54.122Z,5.87
2022-07-31T17:24:56.260Z,5.43
2022-07-31T17:26:59.925Z,6.73
2022-07-31T17:29:03.591Z,14.90
2022-07-31T17:31:07.188Z,7.20
2022-07-31T17:33:10.828Z,6.60
2022-07-31T17:35:14.389Z,5.87
2022-07-31T17:39:32.335Z,5.20
2022-07-31T17:41:35.963Z,5.13
2022-07-31T17:43:50.690Z,5.30
2022-07-31T17:45:59.760Z,5.37
2022-07-31T17:48:03.635Z,5.10
2022-07-31T17:49:56.810Z,4.80
2022-07-31T17:52:00.631Z,4.50
2022-07-31T17:54:08.863Z,5.17
2022-07-31T17:56:14.728Z,5.17
2022-07-31T17:58:20.084Z,4.60
2022-07-31T18:00:27.369Z,4.57
2022-07-31T18:02:29.997Z,4.27
2022-07-31T18:04:36.547Z,3.80
2022-07-31T18:06:40.095Z,3.63
2022-07-31T18:08:43.793Z,3.93
2022-07-31T18:10:54.315Z,4.00
2022-07-31T18:12:57.371Z,4.03
2022-07-31T18:14:59.634Z,4.33
2022-07-31T18:17:03.302Z,3.87
2022-07-31T18:19:07.381Z,4.20
2022-07-31T18:21:11.837Z,3.97
2022-07-31T18:23:15.536Z,3.50
2022-07-31T18:25:19.520Z,3.50
2022-07-31T18:27:23.113Z,3.90
2022-07-31T18:29:31.185Z,3.93
2022-07-31T18:31:36.057Z,4.03
2022-07-31T18:33:41.977Z,3.20
2022-07-31T18:38:03.200Z,5.77
2022-07-31T18:40:09.901Z,2.93
2022-07-31T18:42:14.330Z,2.97
2022-07-31T18:44:18.556Z,3.60
2022-07-31T18:46:23.147Z,3.10
2022-07-31T18:48:27.588Z,3.10
2022-07-31T18:51:01.116Z,3.13
2022-07-31T18:52:37.636Z,2.97
2022-07-31T18:54:41.329Z,3.20
2022-07-31T18:56:44.960Z,3.10
2022-07-31T18:58:48.667Z,3.13
2022-07-31T19:00:55.229Z,2.80
2022-07-31T19:02:59.517Z,2.57
2022-07-31T19:05:04.228Z,3.07
2022-07-31T19:07:08.133Z,2.77
2022-07-31T19:09:11.763Z,2.67
2022-07-31T19:11:16.472Z,2.93
2022-07-31T19:13:20.656Z,2.87
2022-07-31T19:15:24.984Z,2.73
2022-07-31T19:17:43.892Z,3.60
2022-07-31T19:19:54.318Z,2.90
2022-07-31T19:21:42.595Z,3.30
2022-07-31T19:23:45.505Z,3.40
2022-07-31T19:25:52.167Z,3.67
2022-07-31T19:27:56.769Z,3.47
2022-07-31T19:30:01.239Z,3.83
2022-07-31T19:32:06.717Z,3.07
2022-07-31T19:34:11.651Z,3.60
2022-07-31T19:36:20.258Z,3.40
2022-07-31T19:38:25.504Z,3.20
2022-07-31T19:40:30.245Z,3.40
2022-07-31T19:42:35.484Z,3.20
2022-07-31T19:44:39.612Z,3.07
2022-07-31T19:46:44.472Z,3.20
2022-07-31T19:48:51.181Z,2.80
2022-07-31T19:50:56.227Z,3.20
2022-07-31T19:53:00.317Z,3.20
2022-07-31T19:55:05.344Z,3.30
2022-07-31T19:57:11.019Z,3.30
2022-07-31T19:59:14.943Z,3.27
2022-07-31T20:01:22.062Z,3.13
2022-07-31T20:03:27.381Z,3.57
2022-07-31T20:05:31.713Z,3.47
2022-07-31T20:07:36.024Z,3.63
2022-07-31T20:11:59.723Z,3.70
2022-07-31T20:14:04.455Z,3.70
2022-07-31T20:16:08.275Z,4.47
2022-07-31T20:18:12.258Z,4.33
2022-07-31T20:20:17.716Z,3.83
2022-07-31T20:22:21.566Z,3.67
2022-07-31T20:24:26.888Z,3.23
2022-07-31T20:26:32.563Z,2.93
2022-07-31T20:28:39.572Z,3.10
2022-07-31T20:30:43.873Z,3.30
2022-07-31T20:32:48.697Z,3.47
2022-07-31T20:34:55.088Z,3.60
2022-07-31T20:36:59.550Z,3.33
2022-07-31T20:39:03.102Z,3.80
2022-07-31T20:41:06.965Z,3.23
2022-07-31T20:43:10.482Z,3.13
2022-07-31T20:45:14.615Z,2.93
2022-07-31T20:47:22.776Z,2.87
2022-07-31T20:49:34.969Z,3.00
2022-07-31T20:51:29.261Z,2.43
2022-07-31T20:53:33.010Z,2.60
2022-07-31T20:55:36.639Z,2.17
2022-07-31T20:57:40.294Z,2.83
2022-07-31T20:59:43.906Z,2.17
2022-07-31T21:01:47.501Z,2.63
2022-07-31T21:03:51.164Z,2.50
2022-07-31T21:05:54.749Z,2.70
2022-07-31T21:07:58.368Z,2.63
2022-07-31T21:10:04.794Z,2.30
2022-07-31T21:12:09.064Z,2.47
2022-07-31T21:14:12.743Z,2.73
2022-07-31T21:16:16.372Z,2.43
2022-07-31T21:18:20.927Z,2.60
2022-07-31T21:20:29.188Z,2.53
2022-07-31T21:22:30.596Z,2.60
2022-07-31T21:24:35.553Z,2.70
2022-07-31T21:26:40.738Z,2.80
2022-07-31T21:31:00.509Z,2.33
2022-07-31T21:33:05.096Z,2.80
2022-07-31T21:37:28.703Z,3.10
2022-07-31T21:39:35.358Z,2.60
2022-07-31T21:41:40.148Z,3.03
2022-07-31T21:43:58.797Z,2.63
2022-07-31T21:45:57.372Z,2.90
2022-07-31T21:48:00.676Z,2.67
2022-07-31T21:50:07.256Z,3.10
2022-07-31T21:54:29.684Z,3.00
2022-07-31T21:56:33.531Z,3.00
2022-07-31T21:58:37.214Z,3.10
2022-07-31T22:00:40.822Z,3.77
2022-07-31T22:02:45.113Z,3.20
2022-07-31T22:05:06.931Z,3.07
2022-07-31T22:07:38.633Z,2.70
2022-07-31T22:09:42.226Z,3.30
2022-07-31T22:11:59.987Z,3.13
2022-07-31T22:13:51.248Z,3.17
2022-07-31T22:16:00.525Z,3.30
2022-07-31T22:18:00.331Z,3.17
2022-07-31T22:20:06.877Z,3.30
2022-07-31T22:22:12.448Z,3.20
2022-07-31T22:24:16.620Z,3.50
2022-07-31T22:26:21.231Z,3.33
2022-07-31T22:28:25.854Z,3.40
2022-07-31T22:30:30.742Z,2.93
2022-07-31T22:32:35.001Z,3.60
2022-07-31T22:34:38.963Z,3.30
2022-07-31T22:36:43.229Z,4.13
2022-07-31T22:38:48.551Z,3.30
2022-07-31T22:40:52.234Z,3.30
2022-07-31T22:42:58.170Z,3.30
2022-07-31T22:45:01.953Z,3.40
2022-07-31T22:47:07.953Z,3.10
2022-07-31T22:49:11.845Z,3.23
2022-07-31T22:51:15.936Z,3.30
2022-07-31T22:53:19.581Z,3.23
2022-07-31T22:55:23.471Z,3.60
2022-07-31T22:57:27.121Z,4.10
2022-07-31T22:59:30.791Z,3.87
2022-07-31T23:01:34.303Z,3.77
2022-07-31T23:03:37.892Z,4.17
2022-07-31T23:06:03.525Z,4.00
2022-07-31T23:07:46.995Z,4.10
2022-07-31T23:12:09.640Z,4.60
2022-07-31T23:14:13.178Z,4.07
2022-07-31T23:16:48.163Z,3.27
2022-07-31T23:18:59.089Z,3.73
2022-07-31T23:21:02.760Z,3.60
2022-07-31T23:23:07.987Z,3.73
2022-07-31T23:25:14.292Z,3.23
2022-07-31T23:27:17.799Z,3.30
2022-07-31T23:29:21.304Z,3.23
2022-07-31T23:31:25.008Z,3.93
2022-07-31T23:33:28.672Z,3.80
2022-07-31T23:35:32.325Z,7.00
2022-07-31T23:37:35.931Z,3.53
2022-07-31T23:39:39.620Z,3.40
2022-07-31T23:42:01.213Z,3.33
2022-07-31T23:44:05.673Z,3.17
2022-07-31T23:46:11.028Z,4.20
2022-07-31T23:48:14.954Z,7.17
2022-07-31T23:50:18.652Z,3.30
2022-07-31T23:52:22.233Z,3.50
2022-07-31T23:56:43.810Z,3.00
2022-07-31T23:58:47.583Z,3.00
